Time;durP1;ratioP1;P1;durP2;ratioP2;P2;SDS_P1;SDS_P2;PMS_P1;PMS_P2;Temp;Humidity;BMP_temperature;BMP_pressure;BME280_temperature;BME280_humidity;BME280_pressure;Samples;Min_cycle;Max_cycle;Signal;HPM_P1;HPM_P2
2022/05/21 00:01:49;;;;;;;3.15;2.25;;;;;;;22.21;64.26;99641.28;4971051;28;97376;-87
2022/05/21 00:04:16;;;;;;;4.47;2.80;;;;;;;22.01;64.53;99616.38;4962799;28;97767;-87
2022/05/21 00:06:41;;;;;;;8.93;2.92;;;;;;;22.17;64.49;99637.19;4961722;28;101520;-87
2022/05/21 00:09:07;;;;;;;6.28;2.42;;;;;;;22.29;64.29;99657.47;5004858;28;98056;-87
2022/05/21 00:11:33;;;;;;;5.47;2.70;;;;;;;22.24;64.00;99627.63;4979161;28;97156;-88
2022/05/21 00:13:59;;;;;;;4.57;2.35;;;;;;;22.29;64.08;99638.75;4966940;28;97471;-88
2022/05/21 00:16:24;;;;;;;4.40;2.35;;;;;;;22.27;63.99;99630.03;4962714;28;100639;-88
2022/05/21 00:18:50;;;;;;;4.78;2.40;;;;;;;22.26;64.31;99636.38;4984262;28;100722;-87
2022/05/21 00:21:16;;;;;;;6.40;2.30;;;;;;;22.20;64.56;99631.59;4974509;28;97240;-87
2022/05/21 00:23:42;;;;;;;3.03;2.13;;;;;;;22.19;64.10;99632.56;4973741;28;96845;-87
2022/05/21 00:26:13;;;;;;;3.45;2.33;;;;;;;22.13;64.30;99631.28;4963843;28;101216;-87
2022/05/21 00:28:41;;;;;;;4.15;2.50;;;;;;;22.00;64.48;99620.88;4978270;28;101041;-88
2022/05/21 00:31:09;;;;;;;7.88;2.38;;;;;;;22.11;64.17;99631.44;4953849;28;96853;-87
2022/05/21 00:33:35;;;;;;;4.45;2.35;;;;;;;22.14;63.99;99646.34;5001675;28;97247;-87
2022/05/21 00:36:01;;;;;;;4.43;2.05;;;;;;;21.99;63.95;99642.38;4982012;28;101954;-88
2022/05/21 00:38:26;;;;;;;3.75;2.40;;;;;;;21.96;64.22;99643.50;4995680;28;98418;-87
2022/05/21 00:40:54;;;;;;;3.88;2.22;;;;;;;22.02;63.92;99632.28;4994179;28;96984;-87
2022/05/21 00:43:39;;;;;;;3.25;2.17;;;;;;;21.96;64.52;99632.00;4997978;28;97272;-87
2022/05/21 00:46:10;;;;;;;6.95;2.15;;;;;;;21.91;64.77;99633.28;4992136;28;98668;-88
2022/05/21 00:48:37;;;;;;;1.75;1.63;;;;;;;21.91;64.59;99627.94;4964329;28;101757;-87
2022/05/21 00:51:03;;;;;;;5.40;1.90;;;;;;;21.86;64.58;99627.50;4962641;28;96938;-87
2022/05/21 00:53:29;;;;;;;4.90;2.33;;;;;;;21.87;64.75;99641.69;4982256;28;97251;-87
2022/05/21 00:55:55;;;;;;;5.40;1.83;;;;;;;21.78;65.13;99648.72;4962137;28;101679;-87
2022/05/21 01:01:07;;;;;;;3.33;2.42;;;;;;;21.93;64.51;99655.34;4997243;28;97244;-87
2022/05/21 01:03:33;;;;;;;2.22;1.73;;;;;;;21.96;64.40;99646.19;4999871;28;97304;-87
2022/05/21 01:06:02;;;;;;;2.60;2.03;;;;;;;21.92;64.78;99647.47;4958586;28;101333;-87
2022/05/21 01:08:28;;;;;;;4.82;1.67;;;;;;;21.91;64.65;99646.63;4975262;28;101143;-88
2022/05/21 01:10:57;;;;;;;3.78;1.90;;;;;;;21.91;64.73;99648.47;4980710;28;97252;-87
2022/05/21 01:13:25;;;;;;;4.70;2.15;;;;;;;21.88;64.91;99646.06;4970900;28;96768;-88
2022/05/21 01:15:53;;;;;;;2.72;1.83;;;;;;;21.78;65.00;99635.38;4977978;28;101435;-87
2022/05/21 01:18:19;;;;;;;4.82;1.90;;;;;;;21.91;64.72;99659.16;4994561;28;97936;-88
2022/05/21 01:20:48;;;;;;;4.00;1.40;;;;;;;21.86;64.71;99651.53;4984631;28;97101;-87
2022/05/21 01:23:15;;;;;;;6.90;1.90;;;;;;;21.85;64.51;99647.19;4985552;28;96844;-88
2022/05/21 01:25:42;;;;;;;2.13;1.52;;;;;;;21.87;64.87;99649.72;4952861;28;101071;-87
2022/05/21 01:28:13;;;;;;;5.43;1.70;;;;;;;21.75;64.54;99650.84;4977440;28;101721;-87
2022/05/21 01:30:50;;;;;;;3.38;2.05;;;;;;;21.90;64.39;99662.78;4977962;28;96684;-87
2022/05/21 01:33:17;;;;;;;3.08;2.10;;;;;;;21.75;64.97;99674.88;4968122;28;97242;-87
2022/05/21 01:35:45;;;;;;;2.35;1.40;;;;;;;21.65;65.20;99674.88;4967001;28;100189;-87
2022/05/21 01:38:12;;;;;;;3.35;1.77;;;;;;;21.72;64.78;99688.50;4982914;28;98103;-87
2022/05/21 01:40:37;;;;;;;2.45;1.70;;;;;;;21.64;64.51;99667.81;4975796;28;96960;-86
2022/05/21 01:45:51;;;;;;;4.97;1.95;;;;;;;21.63;63.89;99660.81;4993226;28;101658;-87
2022/05/21 01:48:21;;;;;;;2.15;1.33;;;;;;;21.72;64.26;99681.34;4977906;28;100009;-87
2022/05/21 01:50:48;;;;;;;2.60;2.00;;;;;;;21.77;64.04;99679.09;4961708;28;96713;-87
2022/05/21 01:53:14;;;;;;;5.28;1.83;;;;;;;21.81;63.43;99677.81;4961554;28;97424;-88
2022/05/21 01:55:41;;;;;;;4.50;1.77;;;;;;;21.76;64.10;99698.78;4960131;28;101927;-87
2022/05/21 01:58:07;;;;;;;6.50;1.73;;;;;;;21.74;63.75;99699.91;4977201;28;100737;-88
2022/05/21 02:00:33;;;;;;;6.65;2.47;;;;;;;21.63;63.96;99704.38;4963097;28;97700;-87
2022/05/21 02:02:58;;;;;;;3.08;1.60;;;;;;;21.70;63.24;99712.69;4969833;28;96831;-87
2022/05/21 02:05:24;;;;;;;3.15;1.42;;;;;;;21.70;63.00;99700.19;4960511;28;101408;-86
2022/05/21 02:07:50;;;;;;;3.72;1.75;;;;;;;21.74;62.71;99719.44;4962642;28;101221;-87
2022/05/21 02:10:16;;;;;;;2.53;1.95;;;;;;;21.73;62.14;99731.13;4976610;28;97302;-88
2022/05/21 02:12:41;;;;;;;2.35;1.27;;;;;;;21.67;62.38;99727.19;4960492;28;97168;-88
2022/05/21 02:15:07;;;;;;;3.95;1.60;;;;;;;21.74;62.25;99730.13;4977104;28;101797;-87
2022/05/21 02:17:33;;;;;;;4.10;1.75;;;;;;;21.76;61.97;99727.31;4976382;28;97851;-87
2022/05/21 02:19:59;;;;;;;3.03;1.90;;;;;;;21.78;61.52;99736.03;4958641;28;97217;-87
2022/05/21 02:22:26;;;;;;;5.13;2.25;;;;;;;21.59;61.70;99710.16;4983847;28;96828;-88
2022/05/21 02:24:52;;;;;;;7.38;2.10;;;;;;;21.65;61.22;99736.31;4983163;28;101635;-87
2022/05/21 02:27:17;;;;;;;5.50;1.90;;;;;;;21.73;60.88;99747.16;4985146;28;101119;-87
2022/05/21 02:29:43;;;;;;;3.08;2.13;;;;;;;21.63;61.33;99739.09;4979133;28;96723;-85
2022/05/21 02:32:11;;;;;;;3.05;1.85;;;;;;;21.56;61.72;99737.97;4961456;28;96941;-87
2022/05/21 02:34:36;;;;;;;5.95;2.15;;;;;;;21.60;61.43;99751.88;4984373;28;100510;-87
2022/05/21 02:39:47;;;;;;;6.03;2.00;;;;;;;21.54;61.51;99769.28;4985998;28;97180;-87
2022/05/21 02:44:57;;;;;;;5.90;1.98;;;;;;;21.52;60.99;99770.41;4993423;28;98495;-87
2022/05/21 02:47:24;;;;;;;3.05;2.17;;;;;;;21.52;61.03;99767.72;4992884;28;97926;-90
2022/05/21 02:49:50;;;;;;;5.05;2.22;;;;;;;21.53;60.74;99770.28;4960938;28;97123;-87
2022/05/21 02:52:15;;;;;;;4.90;2.40;;;;;;;21.45;60.65;99767.44;4960367;28;96901;-87
2022/05/21 02:54:41;;;;;;;3.67;1.90;;;;;;;21.39;60.79;99771.50;5000982;28;99987;-87
2022/05/21 02:57:09;;;;;;;3.20;2.13;;;;;;;21.43;60.75;99783.56;4988960;28;99794;-87
2022/05/21 02:59:35;;;;;;;8.98;2.35;;;;;;;21.38;60.96;99776.94;4960083;28;96941;-87
2022/05/21 03:02:01;;;;;;;3.95;1.80;;;;;;;21.34;60.63;99779.03;4988911;28;96846;-86
2022/05/21 03:04:26;;;;;;;3.75;2.10;;;;;;;21.28;60.57;99784.06;4972957;28;97994;-88
2022/05/21 03:06:52;;;;;;;8.00;2.25;;;;;;;21.13;61.09;99784.41;4976799;28;98101;-86
2022/05/21 03:12:04;;;;;;;4.57;2.30;;;;;;;21.08;61.19;99820.47;4994763;28;97051;-87
2022/05/21 03:14:29;;;;;;;5.68;2.42;;;;;;;21.10;60.71;99822.03;4982290;28;101510;-88
2022/05/21 03:16:59;;;;;;;9.93;2.30;;;;;;;21.03;60.44;99818.19;4960109;28;101392;-87
2022/05/21 03:19:34;;;;;;;3.95;2.15;;;;;;;21.01;59.87;99807.66;4955478;28;96929;-87
2022/05/21 03:22:00;;;;;;;4.22;1.80;;;;;;;20.92;59.91;99800.44;4985429;28;97152;-87
2022/05/21 03:24:27;;;;;;;3.28;1.90;;;;;;;20.93;59.52;99828.81;4992557;28;98521;-87
2022/05/21 03:26:52;;;;;;;4.25;1.80;;;;;;;20.99;58.13;99828.28;4979496;28;97896;-87
2022/05/21 03:29:18;;;;;;;6.15;1.83;;;;;;;20.79;58.31;99829.13;4974708;28;96682;-87
2022/05/21 03:31:44;;;;;;;6.78;2.00;;;;;;;20.75;58.37;99823.22;4981029;28;97289;-86
2022/05/21 03:34:09;;;;;;;3.80;1.67;;;;;;;20.77;57.76;99829.25;4959428;28;101376;-87
2022/05/21 03:36:36;;;;;;;6.28;1.73;;;;;;;20.77;58.34;99828.44;4986721;28;101126;-87
2022/05/21 03:39:03;;;;;;;7.85;1.58;;;;;;;20.78;58.24;99846.94;4976618;28;96783;-87
2022/05/21 03:41:29;;;;;;;6.30;1.90;;;;;;;20.74;58.33;99842.00;4976311;28;97165;-88
2022/05/21 03:43:55;;;;;;;3.83;1.70;;;;;;;20.68;58.77;99863.84;4976264;28;98079;-87
2022/05/21 03:46:21;;;;;;;3.65;1.67;;;;;;;20.88;58.11;99881.69;4992314;28;101370;-86
2022/05/21 03:48:47;;;;;;;4.45;1.48;;;;;;;20.80;56.12;99865.50;4959321;28;96977;-88
2022/05/21 03:51:13;;;;;;;1.45;0.90;;;;;;;20.85;54.84;99875.78;4960318;28;96913;-87
2022/05/21 03:53:39;;;;;;;5.75;1.25;;;;;;;20.71;53.93;99871.59;4975466;28;101101;-87
2022/05/21 03:56:05;;;;;;;6.75;1.20;;;;;;;20.88;53.01;99880.84;4992557;28;97922;-87
2022/05/21 03:58:31;;;;;;;3.15;1.00;;;;;;;20.84;53.16;99879.44;4977883;28;96765;-86
2022/05/21 04:00:57;;;;;;;4.10;1.52;;;;;;;20.91;53.32;99897.44;4976259;28;98289;-87
2022/05/21 04:03:24;;;;;;;1.88;0.82;;;;;;;20.87;52.85;99889.84;4967627;28;100702;-87
2022/05/21 04:05:50;;;;;;;3.80;0.80;;;;;;;20.81;52.72;99901.88;4975328;28;101075;-86
2022/05/21 04:08:16;;;;;;;4.60;1.00;;;;;;;20.89;52.35;99895.91;4975418;28;97125;-87
2022/05/21 04:10:42;;;;;;;7.88;1.20;;;;;;;20.74;52.13;99887.31;4962552;28;96986;-87
2022/05/21 04:13:08;;;;;;;4.82;1.10;;;;;;;20.95;51.76;99912.22;4996958;28;101092;-87
2022/05/21 04:15:34;;;;;;;3.75;1.10;;;;;;;20.92;51.60;99907.16;4961883;28;99952;-86
2022/05/21 04:18:01;;;;;;;3.60;0.90;;;;;;;21.00;51.38;99909.16;4949199;28;97164;-87
2022/05/21 04:20:27;;;;;;;5.40;0.95;;;;;;;20.94;51.57;99915.00;4964220;28;97227;-89
2022/05/21 04:22:52;;;;;;;2.40;1.25;;;;;;;20.95;51.45;99906.91;4962058;28;100630;-87
2022/05/21 04:25:18;;;;;;;2.78;0.90;;;;;;;20.97;51.42;99906.75;5000330;28;97960;-87
2022/05/21 04:27:44;;;;;;;1.65;0.90;;;;;;;21.18;50.27;99933.47;4958502;28;97045;-87
2022/05/21 04:30:14;;;;;;;6.43;1.52;;;;;;;21.14;50.57;99937.34;4979206;28;97140;-87
2022/05/21 04:32:40;;;;;;;2.13;1.20;;;;;;;21.23;49.93;99936.56;4997051;28;99838;-87
2022/05/21 04:35:06;;;;;;;4.20;0.90;;;;;;;21.42;49.28;99947.44;4994266;28;97957;-87
2022/05/21 04:37:35;;;;;;;4.38;0.77;;;;;;;21.22;49.62;99937.56;4962951;28;96821;-88
2022/05/21 04:40:00;;;;;;;2.55;1.05;;;;;;;21.45;49.42;99957.00;4966259;28;96844;-87
2022/05/21 04:42:26;;;;;;;2.75;0.70;;;;;;;21.55;48.90;99938.34;4982723;28;98686;-87
2022/05/21 04:44:51;;;;;;;3.92;0.80;;;;;;;21.73;48.25;99946.59;4965784;28;100424;-87
2022/05/21 04:47:17;;;;;;;1.70;0.77;;;;;;;21.96;48.33;99955.28;4995292;28;97309;-86
2022/05/21 04:49:43;;;;;;;2.85;1.00;;;;;;;22.19;48.15;99955.97;4986538;28;97023;-87
2022/05/21 04:52:08;;;;;;;5.13;0.80;;;;;;;22.38;47.73;99972.09;4968862;28;100849;-87
2022/05/21 04:54:36;;;;;;;6.00;1.30;;;;;;;22.55;47.44;99966.09;4997353;28;98370;-87
2022/05/21 04:57:01;;;;;;;2.72;0.93;;;;;;;22.63;47.01;99972.56;4993515;28;96773;-87
2022/05/21 04:59:27;;;;;;;3.95;1.17;;;;;;;22.72;47.20;99982.41;4978721;28;96746;-87
2022/05/21 05:01:52;;;;;;;5.38;1.23;;;;;;;22.76;46.62;99987.38;4977654;28;98235;-87
2022/05/21 05:04:18;;;;;;;1.85;0.73;;;;;;;22.85;46.63;99990.22;4986755;28;98460;-87
2022/05/21 05:06:43;;;;;;;5.05;0.90;;;;;;;22.85;46.15;99974.16;4979982;28;96836;-87
2022/05/21 05:09:09;;;;;;;2.70;0.65;;;;;;;23.17;45.23;100004.19;4974784;28;97132;-87
2022/05/21 05:11:35;;;;;;;0.98;0.68;;;;;;;23.16;44.04;100001.69;5023239;28;98471;-87
2022/05/21 05:14:01;;;;;;;3.17;0.60;;;;;;;23.22;43.56;100018.00;4962800;28;100111;-87
2022/05/21 05:16:27;;;;;;;0.98;0.70;;;;;;;23.51;42.95;100001.09;4978999;28;97300;-86
2022/05/21 05:18:53;;;;;;;1.65;0.43;;;;;;;23.74;42.06;100015.03;4978554;28;96841;-87
2022/05/21 05:21:18;;;;;;;1.75;1.02;;;;;;;23.92;42.18;100018.66;4994012;28;101846;-87
2022/05/21 05:23:44;;;;;;;4.15;0.80;;;;;;;24.04;41.78;100016.63;4969929;28;100252;-87
2022/05/21 05:26:09;;;;;;;2.53;0.80;;;;;;;24.27;40.81;100014.44;4991525;28;96688;-86
2022/05/21 05:28:35;;;;;;;3.58;0.70;;;;;;;24.35;40.00;100008.34;4975595;28;97135;-87
2022/05/21 05:31:00;;;;;;;0.50;0.43;;;;;;;24.63;39.71;100010.03;4998651;28;98365;-87
2022/05/21 05:33:26;;;;;;;1.27;0.50;;;;;;;24.96;39.23;100010.41;4995678;28;97375;-86
2022/05/21 05:35:52;;;;;;;2.25;0.43;;;;;;;25.61;38.05;100007.47;4966245;28;97157;-87
2022/05/21 05:38:18;;;;;;;1.35;0.73;;;;;;;26.29;36.42;100011.25;4961455;28;96914;-86
2022/05/21 05:40:46;;;;;;;0.73;0.60;;;;;;;26.85;35.38;100020.59;4976198;28;98282;-86
2022/05/21 05:43:15;;;;;;;2.47;0.90;;;;;;;27.59;34.28;100013.44;4971797;28;101506;-87
2022/05/21 05:45:40;;;;;;;5.53;0.80;;;;;;;28.45;32.98;100017.34;4961053;28;97022;-87
2022/05/21 05:48:06;;;;;;;6.13;1.00;;;;;;;29.46;31.02;100012.81;4994578;28;97187;-86
2022/05/21 05:50:32;;;;;;;1.98;0.80;;;;;;;30.71;29.34;100007.56;4963977;28;101704;-89
2022/05/21 05:53:05;;;;;;;1.63;0.63;;;;;;;31.32;28.89;100002.59;4956299;28;100837;-86
2022/05/21 05:55:31;;;;;;;1.83;0.80;;;;;;;31.99;27.63;100001.28;4974079;28;97191;-88
2022/05/21 05:57:57;;;;;;;2.75;0.85;;;;;;;32.31;26.85;99998.97;5005458;28;97368;-86
2022/05/21 06:00:23;;;;;;;1.83;1.10;;;;;;;32.66;26.15;99988.91;4976531;28;97740;-86
2022/05/21 06:02:58;;;;;;;2.45;0.80;;;;;;;33.44;25.59;100020.22;4976220;28;97611;-87
2022/05/21 06:05:25;;;;;;;4.43;0.98;;;;;;;33.99;25.36;100026.28;4959875;28;96742;-86
2022/05/21 06:07:53;;;;;;;0.60;0.60;;;;;;;33.96;24.72;100015.84;4959640;28;97039;-86
2022/05/21 06:10:24;;;;;;;1.17;0.70;;;;;;;34.29;25.02;100014.94;4975632;28;97785;-88
2022/05/21 06:12:49;;;;;;;1.30;0.80;;;;;;;34.81;23.89;100038.44;4972578;28;99991;-86
2022/05/21 06:15:15;;;;;;;7.05;0.95;;;;;;;34.98;23.96;100027.03;4975795;28;97252;-86
2022/05/21 06:17:42;;;;;;;3.53;0.80;;;;;;;35.00;23.48;100023.03;4960867;28;97563;-87
2022/05/21 06:20:11;;;;;;;6.57;0.93;;;;;;;35.98;22.78;100019.72;4976989;28;98844;-87
2022/05/21 06:22:36;;;;;;;4.30;0.73;;;;;;;36.18;22.60;100014.09;4975771;28;101019;-85
2022/05/21 06:25:03;;;;;;;3.33;0.80;;;;;;;35.88;22.96;100013.97;4958914;28;96975;-86
2022/05/21 06:27:32;;;;;;;0.70;0.68;;;;;;;35.48;23.41;100014.28;4974587;28;96911;-88
2022/05/21 06:29:58;;;;;;;1.33;0.75;;;;;;;33.42;25.36;100036.75;4950680;28;100604;-87
2022/05/21 06:32:23;;;;;;;3.22;0.80;;;;;;;34.99;24.34;100040.41;4985386;28;100404;-87
2022/05/21 06:34:49;;;;;;;2.28;0.80;;;;;;;33.86;24.89;100037.19;4989354;28;96832;-87
2022/05/21 06:37:14;;;;;;;3.38;1.10;;;;;;;36.00;23.04;100044.09;4954420;28;97293;-87
2022/05/21 06:39:42;;;;;;;3.92;0.90;;;;;;;34.59;23.94;100037.06;4956010;28;101991;-87
2022/05/21 06:42:09;;;;;;;4.00;0.85;;;;;;;35.77;22.76;100028.34;4973862;28;99889;-87
2022/05/21 06:44:35;;;;;;;8.02;1.15;;;;;;;36.31;22.30;100032.25;4967595;28;96867;-88
2022/05/21 06:47:00;;;;;;;1.15;0.90;;;;;;;36.54;22.17;100033.44;4956933;28;96868;-86
2022/05/21 06:49:26;;;;;;;1.38;0.80;;;;;;;36.61;22.31;100009.63;4972775;28;101439;-88
2022/05/21 06:51:54;;;;;;;2.85;0.90;;;;;;;36.92;21.59;100036.75;4958128;28;101221;-87
2022/05/21 06:54:20;;;;;;;2.72;0.90;;;;;;;37.28;21.30;100045.91;4992959;28;97187;-88
2022/05/21 06:56:46;;;;;;;3.47;1.17;;;;;;;36.54;21.97;100047.97;4963578;28;96846;-88
2022/05/21 06:59:12;;;;;;;2.10;1.08;;;;;;;35.09;22.86;100051.72;4960205;28;100473;-88
2022/05/21 07:01:37;;;;;;;1.38;0.93;;;;;;;36.24;21.77;100017.81;4964150;28;97319;-87
2022/05/21 07:04:03;;;;;;;1.75;1.27;;;;;;;35.65;22.63;100041.91;4976460;28;96782;-87
2022/05/21 07:09:13;;;;;;;2.00;0.80;;;;;;;36.92;21.15;100044.94;4985493;28;101461;-87
2022/05/21 07:11:39;;;;;;;2.17;0.90;;;;;;;37.00;21.45;100053.88;4980250;28;101366;-88
2022/05/21 07:14:05;;;;;;;1.80;0.82;;;;;;;38.63;21.58;100063.38;4986571;28;97227;-88
2022/05/21 07:16:30;;;;;;;2.25;0.95;;;;;;;38.48;20.64;100046.59;4974287;28;96920;-88
2022/05/21 07:18:56;;;;;;;2.38;0.90;;;;;;;38.55;20.44;100047.31;4953465;28;100251;-88
2022/05/21 07:21:21;;;;;;;2.25;0.82;;;;;;;38.67;20.23;100071.94;4975467;28;97411;-89
2022/05/21 07:23:48;;;;;;;2.55;1.40;;;;;;;39.53;19.93;100059.03;4969653;28;96840;-85
2022/05/21 07:26:14;;;;;;;2.75;0.80;;;;;;;39.79;19.74;100068.53;4970276;28;97247;-85
2022/05/21 07:28:40;;;;;;;2.58;0.88;;;;;;;40.01;19.18;100073.28;4969528;28;102421;-84
2022/05/21 07:31:05;;;;;;;2.92;0.98;;;;;;;39.59;20.09;100077.28;4970938;28;97796;-84
2022/05/21 07:33:31;;;;;;;1.98;0.90;;;;;;;39.77;19.61;100072.66;4970477;28;97791;-85
2022/05/21 07:35:57;;;;;;;2.00;0.60;;;;;;;39.29;20.15;100082.19;4969048;28;96973;-84
2022/05/21 07:38:23;;;;;;;2.28;0.90;;;;;;;36.75;21.70;100065.78;4982480;28;97419;-84
2022/05/21 07:40:51;;;;;;;3.33;0.80;;;;;;;34.38;24.11;100071.66;4971805;28;98344;-85
2022/05/21 07:43:27;;;;;;;2.55;0.85;;;;;;;33.00;25.79;100073.28;4952066;28;97131;-84
2022/05/21 07:45:54;;;;;;;3.05;0.95;;;;;;;33.20;25.44;100093.22;4968917;28;97114;-84
2022/05/21 07:48:21;;;;;;;1.40;0.82;;;;;;;32.10;26.64;100080.50;4966796;28;98050;-86
2022/05/21 07:50:56;;;;;;;2.25;1.02;;;;;;;32.11;27.50;100093.88;4981565;28;100890;-85
2022/05/21 07:53:33;;;;;;;1.70;0.90;;;;;;;33.09;25.48;100088.38;4973415;28;97415;-87
2022/05/21 07:55:59;;;;;;;3.47;1.30;;;;;;;34.95;23.88;100074.63;4985108;28;97288;-82
2022/05/21 07:58:26;;;;;;;3.38;0.82;;;;;;;34.05;24.40;100088.09;4974677;28;97500;-85
2022/05/21 08:00:53;;;;;;;0.80;0.80;;;;;;;35.85;22.80;100084.56;4972641;28;101763;-82
2022/05/21 08:03:19;;;;;;;3.28;0.90;;;;;;;35.80;22.16;100093.44;4973367;28;96598;-85
2022/05/21 08:05:45;;;;;;;4.97;0.70;;;;;;;32.87;25.76;100085.78;4964532;28;97257;-80
2022/05/21 08:08:11;;;;;;;3.40;0.60;;;;;;;31.21;26.90;100089.03;4969075;28;98069;-81
2022/05/21 08:10:45;;;;;;;3.27;0.60;;;;;;;29.57;28.99;100098.91;4954766;28;101239;-81
2022/05/21 08:13:12;;;;;;;3.13;0.80;;;;;;;29.28;29.10;100097.75;4985874;28;96877;-83
2022/05/21 08:15:38;;;;;;;2.35;0.60;;;;;;;30.23;29.12;100113.59;4987335;28;96901;-85
2022/05/21 08:18:05;;;;;;;3.33;0.73;;;;;;;32.75;24.48;100111.00;4967235;28;97497;-82
2022/05/21 08:20:32;;;;;;;1.73;1.00;;;;;;;34.66;23.08;100093.22;4986073;28;100847;-84
2022/05/21 08:28:26;;;;;;;3.10;0.82;;;;;;;33.00;24.51;100104.03;4986371;28;97518;-82
2022/05/21 08:30:51;;;;;;;6.20;1.00;;;;;;;32.40;25.23;100108.25;4960976;28;100932;-83
2022/05/21 08:33:18;;;;;;;3.75;0.80;;;;;;;31.74;25.95;100101.28;4976389;28;96851;-83
2022/05/21 08:35:44;;;;;;;1.42;0.75;;;;;;;31.51;26.62;100112.34;4975633;28;96892;-83
2022/05/21 08:38:11;;;;;;;4.13;0.70;;;;;;;30.43;27.48;100100.34;4991015;28;101228;-82
2022/05/21 08:40:56;;;;;;;2.80;0.88;;;;;;;29.47;28.75;100118.09;4965216;28;101132;-86
2022/05/21 08:43:54;;;;;;;1.40;0.77;;;;;;;30.31;27.53;100123.50;4972201;28;96999;-88
2022/05/21 08:46:40;;;;;;;2.05;0.93;;;;;;;30.74;26.70;100134.50;4969580;28;97285;-85
2022/05/21 08:49:30;;;;;;;7.30;1.00;;;;;;;30.93;26.61;100121.47;4981925;28;101087;-88
2022/05/21 08:52:19;;;;;;;2.20;1.08;;;;;;;33.51;24.55;100122.59;4965761;28;98048;-86
2022/05/21 08:54:47;;;;;;;3.53;1.00;;;;;;;35.17;22.96;100135.19;4970153;28;97057;-87
2022/05/21 08:57:17;;;;;;;1.67;1.02;;;;;;;34.89;22.63;100135.50;4956232;28;97010;-88
2022/05/21 08:59:45;;;;;;;;;;;;;;;35.41;21.69;100128.13;4975481;28;97163;-88
2022/05/21 09:02:15;;;;;;;4.47;0.80;;;;;;;34.37;23.04;100118.22;4957916;28;100406;-89
2022/05/21 09:04:41;;;;;;;1.15;0.80;;;;;;;33.67;23.41;100132.25;4974836;28;96786;-87
2022/05/21 09:07:15;;;;;;;1.80;0.60;;;;;;;32.19;24.82;100131.72;4980459;28;96866;-86
2022/05/21 09:10:31;;;;;;;4.18;0.73;;;;;;;31.64;26.20;100132.47;4989057;28;101339;-76
2022/05/21 09:13:20;;;;;;;3.08;1.02;;;;;;;31.19;25.75;100138.03;4957935;28;101397;-83
2022/05/21 09:18:32;;;;;;;2.05;0.82;;;;;;;30.40;26.29;100121.56;4988752;28;96932;-83
2022/05/21 09:21:19;;;;;;;7.65;0.80;;;;;;;29.72;27.12;100134.16;4963068;28;100952;-82
2022/05/21 09:23:54;;;;;;;3.97;0.73;;;;;;;30.16;26.61;100146.97;4974289;28;101382;-83
2022/05/21 09:26:22;;;;;;;1.52;0.70;;;;;;;30.51;25.91;100150.03;4959380;28;97001;-82
2022/05/21 09:28:48;;;;;;;3.92;1.23;;;;;;;30.49;26.89;100133.13;4958360;28;97312;-73
2022/05/21 09:31:23;;;;;;;0.95;0.70;;;;;;;31.12;26.69;100143.38;4992862;28;97349;-79
2022/05/21 09:33:49;;;;;;;2.15;0.70;;;;;;;30.35;26.97;100129.38;4984973;28;101208;-81
2022/05/21 09:36:21;;;;;;;2.05;0.90;;;;;;;30.45;26.43;100149.72;4990462;28;97367;-76
2022/05/21 09:38:49;;;;;;;3.13;0.70;;;;;;;30.01;26.88;100153.16;5004940;28;97310;-82
2022/05/21 09:41:21;;;;;;;3.05;0.88;;;;;;;29.10;28.20;100153.94;4993409;28;101683;-79
2022/05/21 09:46:44;;;;;;;2.25;0.75;;;;;;;29.53;27.69;100157.91;4982862;28;96894;-81
2022/05/21 09:49:22;;;;;;;1.90;0.77;;;;;;;29.65;27.34;100133.22;4978820;28;97672;-81
2022/05/21 09:51:55;;;;;;;2.40;0.80;;;;;;;30.14;27.24;100139.03;4997869;28;97461;-78
2022/05/21 09:54:53;;;;;;;3.58;0.95;;;;;;;30.58;26.96;100157.22;4994383;28;101681;-82
2022/05/21 09:57:37;;;;;;;2.67;1.00;;;;;;;31.06;26.00;100157.69;4986009;28;96810;-81
2022/05/21 10:00:14;;;;;;;3.78;1.10;;;;;;;30.89;26.08;100159.78;4991152;28;96849;-80
2022/05/21 10:02:44;;;;;;;6.72;0.88;;;;;;;30.71;25.56;100159.28;5003585;28;101360;-87
2022/05/21 10:05:13;;;;;;;5.88;0.90;;;;;;;29.64;27.36;100166.66;4975337;28;101584;-83
2022/05/21 10:10:58;;;;;;;2.63;0.80;;;;;;;29.77;26.42;100167.75;4991835;28;96926;-82
2022/05/21 10:13:23;;;;;;;4.18;0.90;;;;;;;29.97;27.13;100173.50;4987566;28;97643;-90
2022/05/21 10:15:58;;;;;;;5.75;0.90;;;;;;;29.15;27.17;100183.13;4960740;28;100814;-84
2022/05/21 10:18:41;;;;;;;1.50;0.80;;;;;;;29.41;25.74;100181.00;4992502;28;96715;-85
2022/05/21 10:21:28;;;;;;;4.45;0.75;;;;;;;28.63;27.52;100195.28;4957352;28;96810;-85
2022/05/21 10:24:05;;;;;;;5.95;1.48;;;;;;;28.79;27.80;100181.72;4990996;28;101151;-82
2022/05/21 10:26:55;;;;;;;1.95;0.80;;;;;;;29.12;27.19;100184.34;4957351;28;101474;-85
2022/05/21 10:29:27;;;;;;;1.00;0.70;;;;;;;28.81;28.30;100176.16;4977878;28;96864;-88
2022/05/21 10:32:23;;;;;;;3.55;0.73;;;;;;;28.78;27.65;100180.03;4991003;28;97050;-83
2022/05/21 10:34:59;;;;;;;2.80;1.05;;;;;;;28.69;27.60;100166.75;4976662;28;98255;-85
2022/05/21 10:37:43;;;;;;;3.00;0.63;;;;;;;28.38;28.10;100159.34;4964281;28;101809;-86
2022/05/21 10:40:21;;;;;;;4.15;0.68;;;;;;;28.57;27.88;100186.00;4967118;28;97128;-83
2022/05/21 10:43:22;;;;;;;5.00;0.88;;;;;;;28.58;27.30;100181.44;4967843;28;96766;-83
2022/05/21 10:46:38;;;;;;;2.58;1.05;;;;;;;28.20;27.90;100186.53;4967115;28;101141;-81
2022/05/21 10:49:23;;;;;;;11.10;1.15;;;;;;;28.16;28.17;100177.09;4960489;28;101275;-85
2022/05/21 10:52:05;;;;;;;3.42;0.88;;;;;;;28.25;27.48;100180.63;4971326;28;97170;-84
2022/05/21 10:54:53;;;;;;;2.65;0.80;;;;;;;28.36;27.81;100188.34;4980041;28;97304;-82
2022/05/21 10:57:53;;;;;;;1.95;0.80;;;;;;;28.03;28.39;100199.19;4987328;28;97900;-84
2022/05/21 11:00:25;;;;;;;1.90;0.70;;;;;;;28.01;28.50;100197.66;4970412;28;99917;-82
2022/05/21 11:03:12;;;;;;;1.13;0.73;;;;;;;27.82;28.66;100201.53;4970709;28;97105;-82
2022/05/21 11:05:53;;;;;;;2.97;0.80;;;;;;;27.80;28.85;100188.19;4967021;28;96827;-84
2022/05/21 11:08:22;;;;;;;3.75;1.10;;;;;;;27.63;29.14;100197.25;4989170;28;101575;-82
2022/05/21 11:11:15;;;;;;;;;;;;;;;27.57;29.15;100204.13;4987567;28;101251;-82
2022/05/21 11:13:50;;;;;;;1.67;1.05;;;;;;;27.52;28.84;100180.38;4979235;28;97100;-79
2022/05/21 11:16:23;;;;;;;2.85;1.00;;;;;;;27.43;29.13;100194.00;4989737;28;97027;-79
2022/05/21 11:18:54;;;;;;;3.80;1.80;;;;;;;27.49;29.08;100196.06;4970221;28;100760;-79
2022/05/21 11:21:26;;;;;;;1.17;0.80;;;;;;;27.88;29.03;100209.78;4970629;28;101129;-84
2022/05/21 11:24:01;;;;;;;1.65;0.80;;;;;;;27.52;28.60;100203.81;4973513;28;97230;-82
2022/05/21 11:26:42;;;;;;;4.43;0.70;;;;;;;27.03;28.89;100196.38;4988679;28;98039;-84
2022/05/21 11:29:10;;;;;;;;;;;;;;;27.04;29.48;100203.44;5001070;28;100070;-83
2022/05/21 11:37:26;;;;;;;8.15;0.90;;;;;;;26.78;29.52;100192.69;4987473;28;96975;-84
2022/05/21 11:39:54;;;;;;;3.25;0.80;;;;;;;26.80;29.00;100196.09;4965962;28;101671;-84
2022/05/21 11:42:25;;;;;;;4.55;0.80;;;;;;;26.77;29.28;100209.88;4971681;28;100989;-84
2022/05/21 11:44:58;;;;;;;1.60;0.80;;;;;;;26.64;29.26;100215.66;4985703;28;98089;-83
2022/05/21 11:47:26;;;;;;;3.63;0.68;;;;;;;26.51;29.93;100198.25;4963506;28;96905;-84
2022/05/21 11:49:59;;;;;;;2.20;0.93;;;;;;;26.49;29.51;100190.31;4983626;28;101151;-84
2022/05/21 11:52:34;;;;;;;3.95;0.90;;;;;;;26.52;29.41;100199.94;5000999;28;98420;-84
2022/05/21 11:55:11;;;;;;;2.97;0.85;;;;;;;26.34;30.52;100208.03;4991582;28;97303;-82
2022/05/21 11:57:40;;;;;;;5.45;0.90;;;;;;;26.25;29.62;100193.69;4989701;28;96885;-79
2022/05/21 12:00:14;;;;;;;2.58;0.70;;;;;;;26.57;30.23;100208.41;4989232;28;101332;-77
2022/05/21 12:02:58;;;;;;;3.65;1.27;;;;;;;26.45;30.80;100201.56;4983066;28;97689;-76
2022/05/21 12:05:46;;;;;;;1.77;0.75;;;;;;;26.44;29.16;100206.06;5004889;28;96790;-74
2022/05/21 12:08:12;;;;;;;2.13;0.73;;;;;;;26.09;29.24;100212.34;4989318;28;96849;-85
2022/05/21 12:10:58;;;;;;;2.15;0.90;;;;;;;26.08;29.93;100208.00;4974665;28;100634;-84
2022/05/21 12:13:35;;;;;;;2.30;1.08;;;;;;;25.85;30.40;100204.94;4966448;28;101462;-85
2022/05/21 12:16:16;;;;;;;4.28;1.00;;;;;;;25.87;30.10;100211.84;4981850;28;98729;-81